Time,TemperatureF,DewpointF,PressureIn,WindDirection,WindDirectionDegrees,WindSpeedMPH,WindSpeedGustMPH,Humidity,HourlyPrecipIn,Conditions,Clouds,dailyrainin,SolarRadiationWatts/m^2,SoftwareType,DateUTC
2013-08-15 00:01:00,63.0,44.0,-100.00,WSW,239,0.0,3.0,50,0.00,,,0.00,0.000000,,2013-08-15 07:01:00,
2013-08-15 00:21:00,60.0,43.0,-100.00,West,276,1.0,3.0,53,0.00,,,0.00,0.000000,,2013-08-15 07:21:00,
2013-08-15 00:32:00,60.0,43.0,-100.00,West,276,1.0,3.0,53,0.00,,,0.00,0.000000,,2013-08-15 07:32:00,
2013-08-15 00:42:00,60.0,43.0,-100.00,West,276,1.0,3.0,53,0.00,,,0.00,0.000000,,2013-08-15 07:42:00,
2013-08-15 01:52:00,58.0,42.0,-100.00,SSW,208,1.0,3.0,56,0.00,,,0.00,0.000000,,2013-08-15 08:52:00,
2013-08-15 02:01:00,58.0,42.0,-100.00,SSW,208,1.0,3.0,56,0.00,,,0.00,0.000000,,2013-08-15 09:01:00,
2013-08-15 02:42:00,59.0,40.0,-100.00,SSW,212,3.0,5.0,49,0.00,,,0.00,0.000000,,2013-08-15 09:42:00,
2013-08-15 03:42:00,61.0,38.0,-100.00,SSW,206,3.0,8.0,43,0.00,,,0.00,0.000000,,2013-08-15 10:42:00,
2013-08-15 03:52:00,61.0,38.0,-100.00,SSW,206,3.0,8.0,43,0.00,,,0.00,0.000000,,2013-08-15 10:52:00,
2013-08-15 04:02:00,61.0,38.0,-100.00,SSW,206,3.0,8.0,43,0.00,,,0.00,0.000000,,2013-08-15 11:02:00,
2013-08-15 04:42:00,61.0,38.0,-100.00,SW,214,3.0,7.0,43,0.00,,,0.00,0.000000,,2013-08-15 11:42:00,
2013-08-15 04:52:00,61.0,38.0,-100.00,SW,214,3.0,7.0,43,0.00,,,0.00,0.000000,,2013-08-15 11:52:00,
2013-08-15 05:01:00,61.0,38.0,-100.00,SW,214,3.0,7.0,43,0.00,,,0.00,0.000000,,2013-08-15 12:01:00,
2013-08-15 05:42:00,59.0,38.0,-100.00,SSW,208,3.0,6.0,45,0.00,,,0.00,0.000000,,2013-08-15 12:42:00,
2013-08-15 05:52:00,59.0,38.0,-100.00,SSW,208,3.0,6.0,45,0.00,,,0.00,0.000000,,2013-08-15 12:52:00,
2013-08-15 06:01:00,59.0,38.0,-100.00,SSW,208,3.0,6.0,45,0.00,,,0.00,0.000000,,2013-08-15 13:01:00,
2013-08-15 06:21:00,57.0,37.0,-100.00,SW,215,3.0,7.0,47,0.00,,,0.00,0.000000,,2013-08-15 13:21:00,
2013-08-15 06:32:00,57.0,37.0,-100.00,SW,215,3.0,7.0,47,0.00,,,0.00,0.000000,,2013-08-15 13:32:00,
2013-08-15 06:42:00,57.0,37.0,-100.00,SW,215,3.0,7.0,47,0.00,,,0.00,0.000000,,2013-08-15 13:42:00,
2013-08-15 06:52:00,57.0,37.0,-100.00,SW,215,3.0,7.0,47,0.00,,,0.00,0.000000,,2013-08-15 13:52:00,
2013-08-15 07:01:00,57.0,37.0,-100.00,SW,215,3.0,7.0,47,0.00,,,0.00,0.000000,,2013-08-15 14:01:00,
2013-08-15 07:04:00,57.0,38.0,-100.00,SW,223,3.0,5.0,48,0.00,,,0.00,7.000000,,2013-08-15 14:04:00,
2013-08-15 07:54:00,57.0,38.0,-100.00,SW,223,3.0,5.0,48,0.00,,,0.00,7.000000,,2013-08-15 14:54:00,
2013-08-15 08:43:00,68.0,38.0,-100.00,SSW,204,2.0,7.0,33,0.00,,,0.00,151.000000,,2013-08-15 15:43:00,
2013-08-15 08:54:00,68.0,38.0,-100.00,SSW,204,2.0,7.0,33,0.00,,,0.00,151.000000,,2013-08-15 15:54:00,
2013-08-15 09:03:00,68.0,38.0,-100.00,SSW,204,2.0,7.0,33,0.00,,,0.00,151.000000,,2013-08-15 16:03:00,
2013-08-15 09:04:00,75.0,39.0,-100.00,East,87,3.0,5.0,27,0.00,,,-99.99,381.000000,,2013-08-15 16:04:00,
2013-08-15 09:26:00,75.0,39.0,-100.00,East,87,3.0,5.0,27,0.00,,,-99.99,381.000000,,2013-08-15 16:26:00,
2013-08-15 09:35:00,75.0,39.0,-100.00,East,87,3.0,5.0,27,0.00,,,-99.99,381.000000,,2013-08-15 16:35:00,
2013-08-15 09:44:00,75.0,39.0,-100.00,East,87,3.0,5.0,27,0.00,,,-99.99,381.000000,,2013-08-15 16:44:00,
2013-08-15 09:55:00,75.0,39.0,-100.00,East,87,3.0,5.0,27,0.00,,,-99.99,381.000000,,2013-08-15 16:55:00,
2013-08-15 10:55:00,82.0,39.0,-100.00,East,85,3.0,6.0,22,0.00,,,0.00,578.000000,,2013-08-15 17:55:00,
2013-08-15 11:01:00,-999.0,-99.9,-100.00,East,85,3.0,6.0,-999,-99.99,,,-99.99,578.000000,,2013-08-15 18:01:00,
2013-08-15 11:04:00,-999.0,-99.9,-100.00,East,100,7.0,10.0,-999,0.00,,,0.00,748.000000,,2013-08-15 18:04:00,
2013-08-15 11:40:00,-999.0,-99.9,-100.00,East,100,7.0,10.0,20,0.00,,,0.00,748.000000,,2013-08-15 18:40:00,
2013-08-15 11:49:00,87.0,41.0,-100.00,East,100,7.0,10.0,20,0.00,,,0.00,748.000000,,2013-08-15 18:49:00,
2013-08-15 12:04:00,-999.0,-99.9,-100.00,East,99,10.0,-999.0,-999,-99.99,,,-99.99,,,2013-08-15 19:04:00,
2013-08-15 12:34:00,-999.0,-99.9,-100.00,East,99,10.0,17.0,-999,-99.99,,,-99.99,872.000000,,2013-08-15 19:34:00,
2013-08-15 18:43:00,-999.0,-99.9,-100.00,ENE,57,6.0,-999.0,-999,-99.99,,,-99.99,,,2013-08-16 01:43:00,
2013-08-15 19:44:00,88.0,52.0,-100.00,East,97,8.0,13.0,29,-99.99,,,0.00,99.000000,,2013-08-16 02:44:00,
2013-08-15 19:52:00,88.0,52.0,-100.00,East,97,8.0,13.0,29,-99.99,,,0.00,99.000000,,2013-08-16 02:52:00,
2013-08-15 20:03:00,88.0,52.0,-100.00,East,97,8.0,13.0,29,-99.99,,,0.00,99.000000,,2013-08-16 03:03:00,
2013-08-15 20:43:00,82.0,54.0,-100.00,ENE,62,3.0,12.0,38,-99.99,,,0.00,10.000000,,2013-08-16 03:43:00,
2013-08-15 20:53:00,82.0,54.0,-100.00,ENE,62,3.0,12.0,38,-99.99,,,0.00,10.000000,,2013-08-16 03:53:00,
2013-08-15 21:03:00,82.0,54.0,-100.00,ENE,62,3.0,12.0,38,-99.99,,,0.00,10.000000,,2013-08-16 04:03:00,
2013-08-15 21:42:00,76.0,55.0,-100.00,South,184,2.0,7.0,48,0.00,,,0.00,0.000000,,2013-08-16 04:42:00,
2013-08-15 21:53:00,76.0,55.0,-100.00,South,184,2.0,7.0,48,0.00,,,0.00,0.000000,,2013-08-16 04:53:00,
2013-08-15 22:02:00,76.0,55.0,-100.00,South,184,2.0,7.0,48,0.00,,,0.00,0.000000,,2013-08-16 05:02:00,
2013-08-15 22:22:00,71.0,56.0,-100.00,ESE,112,0.0,2.0,59,0.00,,,0.00,0.000000,,2013-08-16 05:22:00,
2013-08-15 22:32:00,71.0,56.0,-100.00,ESE,112,0.0,2.0,59,0.00,,,0.00,0.000000,,2013-08-16 05:32:00,
2013-08-15 22:42:00,71.0,56.0,-100.00,ESE,112,0.0,2.0,59,0.00,,,0.00,0.000000,,2013-08-16 05:42:00,